Hlavní strana
METAR-TAF:

METAR-TAF

Letiště :

Záporoží, Ukrajina

zeměpisná šířka: 47-52-02N, zeměpisná délka: 035-18-59E, výška: 114 m

Aktuální stav počasí

Zpráva byla vytvořena před 39 minutami, v 13:30 UTC
Jihozápadní vítr 8 kt
Teplota 6°C
Vlhkost vzduchu 75%
Tlak 1019 hPa
Viditelnost 10 km a více
Oblačno až skoro zataženo ve výšce 2800 ft

METAR: UKDE 251330Z 22004MPS 9999 BKN028 06/02 Q1019 R20/210570 NOSIG

Čas: 16:09 (14:09 UTC)

Předpověď počasí

Zpráva byla vytvořena před 2 hodinami a 58 minutami, v 11:11 UTC
Předpověď platná od 25 v 12 UTC do 25 v 21 UTC
Západojihozápadní vítr 10 kt
Viditelnost: 5000 m
Oblačno až skoro zataženo ve výšce 2000 ft
kouřmo
Dočasný
od 25 v 18 UTC do 25 v 21 UTC
Viditelnost: 2100 m
Oblačno až skoro zataženo ve výšce 700 ft
kouřmo

TAF: UKDE 251111Z 2512/2521 24005MPS 5000 BR BKN020 TX07/2513Z TN03/2521Z TEMPO 2518/2521 2100 BR BKN007

Stav a předpovědi počasí z více než 4 000 letišť (zprávy METAR a TAF).

Červené a žluté tečky na mapě představují dostupné meteorologické stanice.

Když kurzor umístíte na tečku, zobrazí se název stanice.

Pak kliknutím zobrazíte stav a předpověď počasí.

Chcete-li změnit mapu, kliknutím na zelené tlačítko se znaménkem +mapu přiblížíte, kliknutím na zelené tlačítko se znaménkem – mapu oddálíte a kliknutím na zelené šipky přejdete na sousední mapy.


METAR-TAF: